Powers, Michigan
Current Conditions -  °F | °C
As of 10:15 PM on Sunday 21 Dec 2014 (Local Time) from KESC Reporting Station
Overcast Overcast  
Wind Chill: 25°   Ceiling: 1200
Heat Index: 36°   Visibility: 4mi
Dew Point: 32°   Wind: 17mph
Humidity: 87%   Direction: 170°S
Pressure: 29.97"   Gusts: 23mph
Location:  45.69°N, 87.53°W
Report Text: KESC 220415Z AUTO 17015G20KT 4SM SCT008 BKN012 OVC029 02/00 A2997 RMK AO1
Loading
Personal Weather Stations






























Interactive Weather Map New forecast layout! Learn more

10-Day Weather Forecast

Advertisements
Track Severe Weather on mobile